Time;durP1;ratioP1;P1;durP2;ratioP2;P2;SDS_P1;SDS_P2;PMS_P1;PMS_P2;Temp;Humidity;BMP_temperature;BMP_pressure;BME280_temperature;BME280_humidity;BME280_pressure;Samples;Min_cycle;Max_cycle;Signal;HPM_P1;HPM_P2
2022/01/23 00:02:48;;;;;;;18.95;9.13;;;21.90;42.20;;;;;;6067367;28;80312;-68
2022/01/23 00:05:49;;;;;;;16.45;8.13;;;21.90;42.40;;;;;;6068134;28;80453;-68
2022/01/23 00:08:50;;;;;;;15.55;8.70;;;21.90;42.30;;;;;;6048828;28;81176;-67
2022/01/23 00:11:54;;;;;;;20.20;9.68;;;21.90;42.50;;;;;;6056881;28;80790;-68
2022/01/23 00:18:14;;;;;;;18.08;8.55;;;21.80;42.80;;;;;;6067064;28;80378;-68
2022/01/23 00:21:14;;;;;;;19.27;8.95;;;21.70;42.80;;;;;;6061294;28;80842;-68
2022/01/23 00:30:55;;;;;;;17.08;8.63;;;21.70;42.90;;;;;;6063647;28;80871;-69
2022/01/23 00:33:56;;;;;;;16.95;8.75;;;21.70;43.20;;;;;;6047233;28;83143;-68
2022/01/23 00:36:57;;;;;;;19.45;8.60;;;21.70;43.10;;;;;;6054760;28;87768;-68
2022/01/23 00:39:57;;;;;;;17.27;9.10;;;21.70;43.30;;;;;;6073907;28;80535;-67
2022/01/23 00:42:58;;;;;;;15.63;8.15;;;21.70;43.20;;;;;;6065685;28;80305;-68
2022/01/23 00:46:21;;;;;;;15.75;8.23;;;21.70;43.10;;;;;;6064341;28;80865;-69
2022/01/23 00:49:25;;;;;;;15.50;8.05;;;21.70;43.10;;;;;;6053119;28;80352;-69
2022/01/23 00:52:25;;;;;;;16.23;8.45;;;21.60;43.00;;;;;;6041928;28;81451;-69
2022/01/23 00:55:26;;;;;;;16.48;8.45;;;21.60;42.80;;;;;;6056871;28;80174;-69
2022/01/23 00:58:26;;;;;;;17.25;9.13;;;21.60;42.80;;;;;;6050544;28;83589;-67
2022/01/23 01:01:27;;;;;;;17.70;8.07;;;21.50;42.50;;;;;;6063276;28;80689;-67
2022/01/23 01:04:28;;;;;;;19.42;8.35;;;21.50;42.70;;;;;;6059705;28;80472;-67
2022/01/23 01:07:29;;;;;;;13.80;7.47;;;21.50;42.70;;;;;;6046548;28;80601;-66
2022/01/23 01:10:46;;;;;;;13.77;7.55;;;21.50;42.50;;;;;;6050486;28;80737;-67
2022/01/23 01:33:28;;;;;;;17.23;8.20;;;21.50;42.60;;;;;;6045503;28;83449;-68
2022/01/23 01:36:45;;;;;;;12.75;7.13;;;21.50;42.70;;;;;;6031596;28;81861;-68
2022/01/23 01:39:46;;;;;;;13.30;7.70;;;21.50;42.90;;;;;;6036736;28;83069;-67
2022/01/23 01:42:48;;;;;;;14.57;7.30;;;21.40;43.10;;;;;;6058755;28;83235;-67
2022/01/23 01:45:51;;;;;;;14.23;8.10;;;21.40;43.30;;;;;;6040410;28;82368;-67
2022/01/23 01:48:53;;;;;;;14.90;7.50;;;21.40;43.50;;;;;;6059361;28;83365;-67
2022/01/23 01:51:54;;;;;;;15.18;7.95;;;21.40;43.50;;;;;;6038063;28;83016;-68
2022/01/23 01:55:01;;;;;;;13.60;7.15;;;21.40;43.70;;;;;;6057994;28;82435;-68
2022/01/23 01:58:13;;;;;;;14.68;7.20;;;21.40;43.70;;;;;;6030581;28;86198;-67
2022/01/23 02:11:24;;;;;;;13.18;7.53;;;21.30;43.50;;;;;;6037969;28;83456;-70
2022/01/23 02:50:51;;;;;;;11.20;5.82;;;21.40;43.50;;;;;;6045966;28;81793;-64
2022/01/23 02:56:56;;;;;;;11.90;5.65;;;21.60;43.20;;;;;;6036792;28;82902;-64
2022/01/23 02:59:57;;;;;;;10.45;5.53;;;21.70;43.20;;;;;;6051311;28;82681;-63
2022/01/23 03:03:24;;;;;;;12.02;5.82;;;21.80;43.00;;;;;;6020169;28;80498;-64
2022/01/23 03:32:20;;;;;;;14.95;7.28;;;22.10;42.30;;;;;;6032351;28;81602;-66
2022/01/23 03:35:21;;;;;;;13.88;6.90;;;22.30;41.60;;;;;;6038608;28;80552;-64
2022/01/23 03:38:22;;;;;;;13.88;7.43;;;22.40;41.20;;;;;;6027284;28;81668;-66
2022/01/23 03:41:22;;;;;;;13.73;7.28;;;22.50;40.90;;;;;;6051588;28;81477;-66
2022/01/23 03:44:23;;;;;;;15.65;7.15;;;22.50;40.80;;;;;;6042756;28;80485;-65
2022/01/23 03:50:35;;;;;;;13.88;7.38;;;22.60;40.30;;;;;;6039681;28;82728;-66
2022/01/23 03:53:36;;;;;;;14.07;7.65;;;22.60;40.40;;;;;;6053584;28;83577;-65
2022/01/23 03:56:36;;;;;;;15.70;7.75;;;22.60;40.20;;;;;;6033127;28;84049;-65
2022/01/23 03:59:37;;;;;;;14.38;7.63;;;22.60;40.00;;;;;;6052236;28;83107;-66
2022/01/23 04:02:38;;;;;;;16.65;8.20;;;22.60;40.00;;;;;;6055470;28;82942;-66
2022/01/23 04:05:39;;;;;;;18.55;9.10;;;22.70;39.80;;;;;;6036095;28;82675;-64
2022/01/23 04:08:40;;;;;;;15.88;8.27;;;22.70;39.90;;;;;;6042728;28;81485;-67
2022/01/23 04:11:41;;;;;;;18.02;8.02;;;22.70;39.60;;;;;;6050679;28;82366;-64
2022/01/23 04:14:49;;;;;;;16.73;9.32;;;22.80;39.70;;;;;;6061023;28;81475;-64
2022/01/23 04:31:36;;;;;;;17.55;8.20;;;22.80;39.60;;;;;;6057300;28;83480;-65
2022/01/23 05:01:24;;;;;;;20.23;9.32;;;23.00;36.00;;;;;;6046152;28;89208;-63
2022/01/23 05:04:35;;;;;;;18.40;9.52;;;23.00;35.60;;;;;;6046797;28;83531;-65
2022/01/23 05:07:47;;;;;;;17.95;9.05;;;23.00;35.40;;;;;;6062238;28;81999;-64
2022/01/23 05:10:50;;;;;;;17.00;9.18;;;23.00;35.30;;;;;;6063388;28;80468;-64
2022/01/23 05:14:30;;;;;;;17.33;8.95;;;23.00;35.10;;;;;;6047586;28;81324;-65
2022/01/23 05:17:31;;;;;;;20.00;9.20;;;23.10;35.00;;;;;;6044606;28;83190;-64
2022/01/23 05:20:32;;;;;;;18.60;9.68;;;23.10;34.70;;;;;;6061791;28;83301;-64
2022/01/23 05:23:33;;;;;;;18.10;8.57;;;23.10;34.60;;;;;;6062211;28;80559;-64
2022/01/23 05:26:41;;;;;;;17.42;8.95;;;23.10;34.40;;;;;;6061399;28;81999;-64
2022/01/23 05:29:42;;;;;;;19.17;9.45;;;23.10;34.30;;;;;;6065790;28;80489;-64
2022/01/23 05:32:43;;;;;;;17.77;9.43;;;23.10;34.20;;;;;;6050943;28;83711;-63
2022/01/23 05:35:43;;;;;;;20.52;9.48;;;23.10;34.30;;;;;;6059985;28;81181;-64
2022/01/23 05:38:44;;;;;;;21.73;10.18;;;23.10;33.90;;;;;;6049584;28;83008;-64
2022/01/23 05:41:45;;;;;;;19.67;9.13;;;23.10;34.00;;;;;;6044872;28;83105;-64
2022/01/23 05:44:46;;;;;;;19.83;9.82;;;23.20;34.30;;;;;;6059544;28;83501;-64
2022/01/23 05:47:47;;;;;;;17.95;9.85;;;23.20;34.50;;;;;;6060647;28;82986;-65
2022/01/23 05:51:16;;;;;;;20.48;10.40;;;23.20;34.50;;;;;;6059216;28;81054;-65
2022/01/23 05:54:17;;;;;;;19.10;9.65;;;23.20;34.50;;;;;;6059042;28;83024;-62
2022/01/23 05:57:36;;;;;;;19.63;9.68;;;23.30;34.90;;;;;;6033030;28;82973;-63
2022/01/23 06:00:44;;;;;;;18.17;9.25;;;23.20;34.80;;;;;;6050014;28;84140;-63
2022/01/23 06:03:50;;;;;;;;;;;23.20;34.70;;;;;;6045176;28;84035;-63
2022/01/23 06:06:59;;;;;;;18.83;8.50;;;23.20;35.20;;;;;;6052596;28;83228;-64
2022/01/23 06:09:59;;;;;;;14.98;7.47;;;23.00;36.00;;;;;;6044507;28;83332;-63
2022/01/23 06:13:01;;;;;;;16.05;6.68;;;23.00;37.50;;;;;;6060731;28;83713;-61
2022/01/23 06:16:01;;;;;;;11.15;6.03;;;22.90;37.90;;;;;;6059653;28;87352;-62
2022/01/23 06:19:02;;;;;;;9.98;5.55;;;22.90;38.70;;;;;;6041418;28;83446;-62
2022/01/23 06:22:21;;;;;;;11.98;5.38;;;22.90;39.70;;;;;;6061264;28;80577;-64
2022/01/23 06:25:32;;;;;;;15.18;5.80;;;22.80;40.10;;;;;;6042128;28;81078;-63
2022/01/23 06:28:51;;;;;;;11.73;5.90;;;22.80;40.60;;;;;;6048388;28;80553;-64
2022/01/23 06:31:57;;;;;;;10.40;4.93;;;22.70;40.90;;;;;;6061330;28;82577;-63
2022/01/23 06:35:00;;;;;;;10.48;4.90;;;22.70;41.90;;;;;;6060237;28;83112;-64
2022/01/23 06:38:02;;;;;;;11.98;5.32;;;22.70;42.30;;;;;;6061536;28;81061;-62
2022/01/23 06:41:03;;;;;;;8.93;4.82;;;22.60;42.70;;;;;;6052262;28;83058;-62
2022/01/23 06:44:19;;;;;;;9.70;5.75;;;22.50;43.00;;;;;;6048874;28;84826;-61
2022/01/23 06:47:20;;;;;;;13.32;6.60;;;22.60;43.60;;;;;;6062341;28;82173;-64
2022/01/23 06:50:21;;;;;;;11.15;5.82;;;22.50;44.10;;;;;;6053884;28;83003;-63
2022/01/23 06:53:22;;;;;;;11.57;6.57;;;22.50;44.90;;;;;;6067191;28;82788;-65
2022/01/23 06:56:23;;;;;;;11.30;6.05;;;22.50;45.20;;;;;;6033065;28;82999;-63
2022/01/23 06:59:24;;;;;;;10.38;6.50;;;22.50;46.30;;;;;;6049131;28;82552;-63
2022/01/23 07:02:31;;;;;;;12.57;6.45;;;22.40;45.70;;;;;;6061499;28;83037;-64
2022/01/23 07:05:52;;;;;;;14.43;7.00;;;22.40;45.70;;;;;;6066031;28;82157;-64
2022/01/23 07:09:15;;;;;;;13.05;7.35;;;22.50;45.60;;;;;;6045723;28;80622;-64
2022/01/23 07:12:36;;;;;;;15.80;7.18;;;22.50;44.90;;;;;;6054493;28;81498;-64
2022/01/23 07:15:54;;;;;;;15.98;7.82;;;22.50;44.20;;;;;;6054155;28;83565;-65
2022/01/23 07:19:21;;;;;;;16.58;8.93;;;22.50;43.40;;;;;;6062480;28;85392;-64
2022/01/23 07:22:25;;;;;;;16.17;8.38;;;22.50;42.90;;;;;;6063163;28;82821;-63
2022/01/23 07:25:25;;;;;;;19.75;8.55;;;22.50;42.80;;;;;;6061945;28;83385;-64
2022/01/23 07:28:36;;;;;;;21.73;9.55;;;22.50;42.60;;;;;;6066011;28;80818;-63
2022/01/23 07:34:38;;;;;;;22.58;10.07;;;22.40;42.30;;;;;;6038830;28;83428;-63
2022/01/23 07:37:40;;;;;;;18.45;9.32;;;22.50;42.30;;;;;;6061890;28;82992;-63
2022/01/23 07:41:07;;;;;;;18.15;9.60;;;22.50;42.40;;;;;;6051276;28;82948;-64
2022/01/23 07:44:16;;;;;;;21.02;9.80;;;22.50;41.50;;;;;;6065476;28;83251;-64
2022/01/23 07:47:43;;;;;;;19.50;9.60;;;22.50;41.70;;;;;;6052168;28;81280;-65
2022/01/23 07:50:54;;;;;;;17.75;9.55;;;22.50;41.90;;;;;;6058194;28;83150;-66
2022/01/23 07:54:08;;;;;;;20.83;10.23;;;22.50;41.80;;;;;;6054077;28;83110;-66
2022/01/23 07:57:42;;;;;;;17.65;8.93;;;22.50;41.90;;;;;;6044237;28;84491;-66
2022/01/23 08:01:06;;;;;;;15.85;9.25;;;22.50;42.10;;;;;;6050692;28;90389;-66
2022/01/23 08:04:15;;;;;;;20.98;10.20;;;22.50;41.80;;;;;;6068783;28;81225;-65
2022/01/23 08:07:31;;;;;;;18.88;9.98;;;22.50;41.70;;;;;;6068718;28;83343;-66
2022/01/23 08:10:38;;;;;;;21.75;11.23;;;22.40;41.50;;;;;;6060165;28;85823;-65
2022/01/23 08:13:38;;;;;;;21.20;10.85;;;22.40;41.40;;;;;;6042905;28;86306;-65
2022/01/23 08:16:39;;;;;;;20.83;10.70;;;22.40;40.90;;;;;;6061721;28;83474;-63
2022/01/23 08:19:39;;;;;;;18.65;9.95;;;22.40;41.30;;;;;;6061869;28;83493;-64
2022/01/23 08:22:40;;;;;;;23.13;10.77;;;22.40;41.40;;;;;;6054549;28;83058;-62
2022/01/23 08:25:41;;;;;;;20.75;10.65;;;22.40;41.10;;;;;;6060485;28;83207;-62
2022/01/23 08:28:41;;;;;;;25.52;11.13;;;22.40;41.20;;;;;;6062922;28;85747;-61
2022/01/23 08:31:45;;;;;;;19.85;10.40;;;22.30;40.80;;;;;;6060642;28;83563;-62
2022/01/23 08:34:45;;;;;;;21.95;10.75;;;22.30;41.10;;;;;;6061825;28;82976;-62
2022/01/23 08:37:46;;;;;;;23.58;11.50;;;22.30;41.00;;;;;;6053999;28;82862;-62
2022/01/23 08:40:58;;;;;;;21.70;10.43;;;22.30;40.80;;;;;;6052290;28;83061;-63
2022/01/23 08:43:59;;;;;;;21.10;10.63;;;22.30;41.00;;;;;;6059983;28;82974;-61
2022/01/23 08:46:59;;;;;;;20.88;10.73;;;22.20;40.60;;;;;;6072348;28;83329;-63
2022/01/23 08:50:00;;;;;;;21.92;11.23;;;22.30;40.70;;;;;;6050470;28;83405;-62
2022/01/23 08:53:01;;;;;;;21.98;10.27;;;22.20;40.90;;;;;;6060937;28;85847;-62
2022/01/23 08:56:01;;;;;;;20.98;10.75;;;22.20;40.60;;;;;;6057787;28;83905;-63
2022/01/23 08:59:02;;;;;;;19.67;10.60;;;22.20;40.60;;;;;;6049485;28;83361;-64
2022/01/23 09:02:02;;;;;;;24.75;10.68;;;22.20;40.60;;;;;;6036795;28;86708;-61
2022/01/23 09:05:03;;;;;;;22.48;10.75;;;22.20;40.50;;;;;;6059670;28;83443;-62
2022/01/23 09:08:03;;;;;;;20.42;10.70;;;22.20;40.50;;;;;;6048551;28;83058;-64
2022/01/23 09:11:10;;;;;;;17.70;10.05;;;22.20;40.80;;;;;;6062091;28;83626;-66
2022/01/23 09:14:10;;;;;;;21.95;10.32;;;22.20;40.90;;;;;;6053917;28;82956;-62
2022/01/23 09:17:11;;;;;;;20.65;10.07;;;22.20;41.00;;;;;;6063188;28;83640;-62
2022/01/23 09:20:11;;;;;;;20.85;10.30;;;22.20;40.90;;;;;;6059409;28;85615;-65
2022/01/23 09:23:12;;;;;;;21.35;11.60;;;22.10;41.10;;;;;;6061299;28;83177;-65
2022/01/23 09:26:16;;;;;;;24.20;11.57;;;22.20;40.70;;;;;;6060181;28;83093;-63
2022/01/23 09:29:24;;;;;;;20.90;10.43;;;22.20;41.10;;;;;;6062202;28;83502;-65
2022/01/23 09:32:25;;;;;;;19.10;11.18;;;22.20;41.30;;;;;;6059843;28;83475;-65
2022/01/23 09:35:25;;;;;;;22.98;10.82;;;22.20;41.30;;;;;;6061578;28;83416;-67
2022/01/23 09:38:26;;;;;;;19.58;11.32;;;22.20;41.60;;;;;;6051010;28;83037;-65
2022/01/23 09:41:26;;;;;;;25.13;12.80;;;22.20;40.90;;;;;;6047563;28;84230;-64
2022/01/23 09:44:27;;;;;;;28.30;15.18;;;22.10;39.70;;;;;;6049398;28;84936;-66
2022/01/23 09:47:27;;;;;;;29.88;14.93;;;22.10;39.20;;;;;;6061621;28;82839;-69
2022/01/23 09:50:28;;;;;;;27.98;14.27;;;22.10;39.10;;;;;;6051887;28;85810;-67
2022/01/23 09:53:29;;;;;;;32.70;15.60;;;22.20;39.60;;;;;;6060102;28;83247;-68
2022/01/23 09:56:33;;;;;;;24.35;12.90;;;22.20;38.70;;;;;;6042761;28;83225;-68
2022/01/23 09:59:34;;;;;;;26.50;13.43;;;22.10;39.30;;;;;;6058880;28;83425;-66
2022/01/23 10:02:34;;;;;;;27.38;14.13;;;22.10;38.90;;;;;;6058473;28;83094;-67
2022/01/23 10:05:35;;;;;;;91.55;41.20;;;22.20;40.10;;;;;;6044526;28;83446;-67
2022/01/23 10:08:35;;;;;;;161.98;72.63;;;22.20;39.80;;;;;;6059039;28;83497;-67
2022/01/23 10:11:39;;;;;;;225.07;101.68;;;22.20;39.00;;;;;;6059011;28;83240;-68
2022/01/23 10:14:40;;;;;;;247.48;115.30;;;22.20;40.00;;;;;;6052901;28;85850;-67
2022/01/23 10:17:40;;;;;;;363.60;164.23;;;22.20;39.80;;;;;;6055810;28;85929;-67
2022/01/23 10:20:41;;;;;;;272.27;121.65;;;22.10;39.60;;;;;;6053930;28;85671;-65
2022/01/23 10:23:42;;;;;;;236.75;107.38;;;22.10;39.30;;;;;;6057149;28;85822;-66
2022/01/23 10:26:45;;;;;;;179.60;80.78;;;22.10;39.20;;;;;;6054291;28;85762;-69
2022/01/23 10:29:47;;;;;;;151.15;71.47;;;22.10;38.00;;;;;;6046756;28;85471;-66
2022/01/23 10:32:47;;;;;;;132.20;60.03;;;22.10;38.70;;;;;;6051702;28;84020;-66
2022/01/23 10:35:48;;;;;;;123.45;56.00;;;22.10;38.60;;;;;;6049541;28;83391;-67
2022/01/23 10:38:48;;;;;;;105.43;46.13;;;22.10;38.90;;;;;;6051665;28;83101;-66
2022/01/23 10:42:01;;;;;;;91.57;42.33;;;22.10;39.00;;;;;;6054147;28;83113;-66
2022/01/23 10:48:35;;;;;;;72.35;34.22;;;22.20;39.70;;;;;;6047467;28;83812;-66
2022/01/23 10:51:39;;;;;;;69.50;32.17;;;22.20;39.50;;;;;;6054933;28;83132;-66
2022/01/23 10:54:39;;;;;;;68.47;30.80;;;22.20;39.00;;;;;;6046524;28;82717;-65
2022/01/23 10:57:40;;;;;;;57.75;26.75;;;22.30;39.20;;;;;;6059844;28;83372;-64
2022/01/23 11:00:40;;;;;;;56.03;26.88;;;22.40;39.70;;;;;;6053658;28;83047;-65
2022/01/23 11:03:41;;;;;;;48.22;25.25;;;22.40;40.30;;;;;;6047085;28;84639;-64
2022/01/23 11:06:41;;;;;;;47.47;22.48;;;22.40;41.00;;;;;;6052053;28;90132;-64
2022/01/23 11:09:42;;;;;;;40.13;21.58;;;22.40;41.90;;;;;;6049952;28;83432;-63
2022/01/23 11:19:11;;;;;;;37.65;20.48;;;22.50;41.90;;;;;;6024402;28;87435;-64
2022/01/23 11:22:12;;;;;;;42.58;20.88;;;22.50;41.70;;;;;;6028615;28;83049;-64
2022/01/23 11:25:14;;;;;;;36.47;19.77;;;22.50;41.80;;;;;;6037106;28;83980;-65
2022/01/23 11:28:14;;;;;;;37.30;20.63;;;22.60;41.50;;;;;;6039113;28;83151;-64
2022/01/23 11:31:17;;;;;;;34.00;17.63;;;22.60;41.70;;;;;;6033525;28;83367;-66
2022/01/23 11:34:17;;;;;;;35.50;18.98;;;22.60;41.50;;;;;;6031795;28;83076;-64
2022/01/23 11:37:19;;;;;;;33.83;18.50;;;22.60;41.40;;;;;;6029715;28;86097;-64
2022/01/23 11:53:43;;;;;;;25.17;15.00;;;22.50;41.40;;;;;;6031111;28;83426;-63
2022/01/23 11:53:47;;;;;;;34.05;15.98;;;22.60;41.60;;;;;;6030760;28;84719;-65
2022/01/23 11:56:48;;;;;;;28.45;15.27;;;22.60;41.00;;;;;;6033978;28;82993;-65
2022/01/23 12:00:08;;;;;;;40.00;16.25;;;22.60;40.70;;;;;;6030920;28;83426;-64
2022/01/23 12:03:17;;;;;;;30.00;15.40;;;22.50;40.50;;;;;;6035007;28;83209;-65
2022/01/23 12:06:20;;;;;;;26.85;14.32;;;22.50;40.30;;;;;;6038714;28;83112;-63
2022/01/23 12:09:21;;;;;;;26.92;15.20;;;22.50;40.20;;;;;;6057466;28;84179;-65
2022/01/23 12:18:44;;;;;;;24.38;12.80;;;22.40;39.80;;;;;;6060440;28;83158;-64
2022/01/23 12:21:49;;;;;;;27.10;13.88;;;22.40;39.50;;;;;;6062951;28;84070;-64
2022/01/23 12:24:50;;;;;;;21.83;12.25;;;22.40;39.50;;;;;;6044390;28;83179;-63
2022/01/23 12:27:50;;;;;;;24.50;12.60;;;22.40;39.30;;;;;;6060764;28;83591;-63
2022/01/23 12:30:51;;;;;;;23.10;12.82;;;22.40;39.20;;;;;;6061853;28;82842;-63
2022/01/23 12:33:51;;;;;;;23.55;13.35;;;22.40;39.10;;;;;;6053637;28;83884;-64
2022/01/23 12:36:52;;;;;;;25.63;13.50;;;22.40;39.00;;;;;;6062683;28;83324;-63
2022/01/23 12:39:52;;;;;;;24.20;12.75;;;22.40;38.90;;;;;;6060435;28;83321;-63
2022/01/23 12:42:53;;;;;;;25.70;12.95;;;22.40;39.10;;;;;;6058031;28;82894;-63
2022/01/23 12:45:53;;;;;;;24.75;13.48;;;22.40;39.10;;;;;;6062749;28;83132;-63
2022/01/23 12:48:54;;;;;;;21.63;12.23;;;22.30;39.20;;;;;;6061399;28;83501;-63
2022/01/23 12:51:54;;;;;;;25.95;13.35;;;22.30;39.00;;;;;;6061965;28;83111;-63
2022/01/23 12:54:56;;;;;;;23.63;12.82;;;22.30;39.00;;;;;;6061899;28;83398;-63
2022/01/23 12:57:57;;;;;;;21.45;12.25;;;22.30;39.80;;;;;;6060048;28;83140;-64
2022/01/23 13:00:59;;;;;;;19.23;11.85;;;22.30;39.20;;;;;;6047938;28;89541;-64
2022/01/23 13:03:59;;;;;;;21.52;11.60;;;22.30;39.00;;;;;;6061947;28;82979;-63
2022/01/23 13:07:02;;;;;;;24.85;12.73;;;22.30;39.00;;;;;;6061715;28;83332;-66
2022/01/23 13:10:07;;;;;;;21.10;11.52;;;22.30;39.10;;;;;;6043608;28;85916;-65
2022/01/23 13:13:18;;;;;;;21.63;12.18;;;22.20;38.70;;;;;;6061736;28;83142;-63
2022/01/23 13:16:33;;;;;;;22.08;11.85;;;22.20;39.00;;;;;;6045593;28;83928;-66
2022/01/23 13:19:58;;;;;;;23.15;10.98;;;22.20;39.40;;;;;;6045817;28;83014;-64
2022/01/23 13:29:54;;;;;;;20.23;10.55;;;22.10;41.10;;;;;;6055439;28;83298;-65
2022/01/23 13:32:58;;;;;;;15.13;9.05;;;22.10;41.60;;;;;;6048173;28;83097;-63
2022/01/23 13:36:01;;;;;;;20.05;10.15;;;22.20;42.00;;;;;;6055776;28;83929;-64
2022/01/23 13:39:06;;;;;;;17.33;9.10;;;22.20;43.10;;;;;;6046390;28;83255;-64
2022/01/23 13:42:16;;;;;;;21.98;10.00;;;22.20;43.60;;;;;;6057853;28;83522;-64
2022/01/23 13:52:00;;;;;;;17.60;9.15;;;22.20;44.60;;;;;;6062201;28;84243;-64
2022/01/23 13:58:36;;;;;;;17.88;8.32;;;22.20;44.50;;;;;;6062668;28;81162;-63
2022/01/23 14:04:52;;;;;;;17.67;8.98;;;22.20;46.00;;;;;;6058922;28;79094;-64
2022/01/23 14:07:53;;;;;;;15.57;8.52;;;22.30;45.50;;;;;;6054962;28;80490;-63
2022/01/23 14:10:53;;;;;;;18.27;8.45;;;22.30;45.60;;;;;;6057785;28;81127;-65
2022/01/23 14:13:54;;;;;;;15.32;9.02;;;22.30;45.80;;;;;;6042275;28;80715;-63
2022/01/23 14:16:54;;;;;;;16.33;8.10;;;22.30;46.10;;;;;;6058931;28;82796;-64
2022/01/23 14:19:55;;;;;;;16.95;8.98;;;22.30;46.00;;;;;;6056204;28;80687;-65
2022/01/23 14:22:56;;;;;;;21.55;10.25;;;22.40;45.10;;;;;;6059108;28;81447;-63
2022/01/23 14:26:00;;;;;;;18.08;9.93;;;22.50;44.00;;;;;;6039130;28;83007;-64
2022/01/23 14:29:01;;;;;;;24.45;11.93;;;22.50;43.50;;;;;;6041914;28;83492;-65
2022/01/23 14:32:01;;;;;;;20.98;10.70;;;22.50;42.70;;;;;;6044177;28;83686;-63
2022/01/23 14:35:05;;;;;;;20.23;11.30;;;22.50;42.70;;;;;;6054537;28;83516;-63
2022/01/23 14:38:05;;;;;;;23.88;11.63;;;22.50;42.00;;;;;;6053564;28;84099;-63
2022/01/23 14:41:07;;;;;;;20.60;11.93;;;22.60;42.00;;;;;;6052270;28;84882;-63
2022/01/23 14:44:08;;;;;;;22.52;12.70;;;22.60;41.70;;;;;;6045127;28;83892;-64
2022/01/23 14:47:09;;;;;;;20.98;11.63;;;22.60;41.40;;;;;;6041997;28;83383;-62
2022/01/23 14:50:14;;;;;;;24.27;12.43;;;22.50;41.70;;;;;;6053997;28;82743;-63
2022/01/23 14:53:15;;;;;;;20.75;12.68;;;22.50;41.50;;;;;;6045569;28;83504;-63
2022/01/23 14:56:15;;;;;;;22.33;12.85;;;22.50;41.80;;;;;;6050939;28;83889;-63
2022/01/23 14:59:16;;;;;;;21.25;12.20;;;22.50;41.30;;;;;;6039844;28;83193;-63
2022/01/23 15:02:17;;;;;;;19.65;11.48;;;22.50;41.20;;;;;;6047347;28;88362;-62
2022/01/23 15:05:17;;;;;;;22.35;11.50;;;22.50;41.30;;;;;;6062796;28;82928;-63
2022/01/23 15:08:21;;;;;;;22.38;11.80;;;22.50;41.20;;;;;;6062650;28;83686;-62
2022/01/23 15:11:22;;;;;;;21.63;11.18;;;22.50;41.60;;;;;;6062142;28;83416;-62
2022/01/23 15:14:22;;;;;;;19.00;11.20;;;22.50;41.70;;;;;;6054411;28;83114;-63
2022/01/23 15:17:24;;;;;;;19.50;11.80;;;22.50;41.40;;;;;;6057205;28;84164;-62
2022/01/23 15:20:25;;;;;;;19.75;11.27;;;22.50;41.60;;;;;;6058526;28;83332;-62
2022/01/23 15:23:26;;;;;;;18.52;10.18;;;22.50;41.30;;;;;;6051170;28;83230;-62
2022/01/23 15:26:27;;;;;;;20.65;10.90;;;22.50;41.90;;;;;;6057156;28;83637;-62
2022/01/23 15:29:27;;;;;;;17.88;10.20;;;22.40;41.30;;;;;;6052708;28;82819;-63
2022/01/23 15:32:28;;;;;;;17.90;9.73;;;22.40;41.80;;;;;;6054747;28;83231;-62
2022/01/23 15:35:28;;;;;;;18.27;9.20;;;22.40;41.90;;;;;;6065857;28;83441;-62
2022/01/23 15:38:30;;;;;;;18.90;9.10;;;22.40;41.60;;;;;;6045790;28;81744;-63
2022/01/23 15:41:30;;;;;;;17.95;8.90;;;22.40;42.00;;;;;;6066103;28;80446;-63
2022/01/23 15:44:31;;;;;;;69.15;29.45;;;22.40;42.10;;;;;;6065350;28;81013;-63
2022/01/23 15:47:31;;;;;;;248.00;117.80;;;22.40;42.70;;;;;;6063142;28;82961;-64
2022/01/23 15:50:32;;;;;;;232.63;113.20;;;22.40;43.00;;;;;;6060609;28;86396;-63
2022/01/23 15:53:32;;;;;;;243.02;113.82;;;22.40;42.80;;;;;;6070952;28;85565;-64
2022/01/23 15:56:33;;;;;;;313.02;152.60;;;22.30;42.70;;;;;;6053958;28;85847;-63
2022/01/23 15:59:35;;;;;;;368.15;175.50;;;22.30;43.10;;;;;;6053558;28;85570;-63
2022/01/23 16:02:35;;;;;;;323.63;150.55;;;22.40;43.60;;;;;;6058219;28;86193;-63
2022/01/23 16:05:36;;;;;;;255.52;122.10;;;22.40;43.40;;;;;;6059551;28;85824;-64
2022/01/23 16:08:37;;;;;;;209.90;101.47;;;22.40;43.00;;;;;;6050489;28;86657;-65
2022/01/23 16:11:37;;;;;;;193.35;92.30;;;22.40;42.90;;;;;;6059344;28;85838;-63
2022/01/23 16:14:38;;;;;;;152.55;73.40;;;22.40;42.40;;;;;;6060921;28;85521;-63
2022/01/23 16:17:38;;;;;;;122.95;60.22;;;22.40;42.30;;;;;;6039943;28;85782;-62
2022/01/23 16:20:39;;;;;;;116.47;54.05;;;22.40;42.20;;;;;;6061304;28;83369;-63
2022/01/23 16:23:39;;;;;;;97.60;47.05;;;22.40;42.00;;;;;;6053772;28;83187;-64
2022/01/23 16:26:40;;;;;;;82.65;39.85;;;22.40;42.10;;;;;;6045208;28;84086;-64
2022/01/23 16:29:42;;;;;;;77.50;36.30;;;22.40;42.00;;;;;;6054495;28;82894;-64
2022/01/23 16:32:43;;;;;;;75.78;35.05;;;22.30;41.80;;;;;;6048064;28;83884;-64
2022/01/23 16:35:43;;;;;;;68.95;32.05;;;22.30;42.10;;;;;;6055558;28;82935;-66
2022/01/23 16:38:44;;;;;;;65.90;29.55;;;22.30;42.20;;;;;;6054282;28;83902;-64
2022/01/23 16:41:44;;;;;;;52.55;26.13;;;22.30;41.80;;;;;;6051087;28;83110;-64
2022/01/23 16:44:45;;;;;;;45.92;22.92;;;22.30;41.90;;;;;;6047379;28;83484;-64
2022/01/23 16:47:47;;;;;;;49.88;22.33;;;22.30;41.80;;;;;;6055344;28;84123;-65
2022/01/23 16:50:47;;;;;;;40.20;19.98;;;22.30;42.10;;;;;;6059054;28;84812;-65
2022/01/23 16:53:48;;;;;;;34.72;17.63;;;22.30;42.60;;;;;;6044580;28;84039;-65
2022/01/23 16:56:48;;;;;;;39.13;17.85;;;22.30;42.20;;;;;;6049287;28;83536;-65
2022/01/23 16:59:49;;;;;;;35.20;17.05;;;22.30;42.60;;;;;;6057937;28;83546;-66
2022/01/23 17:02:49;;;;;;;35.47;17.15;;;22.40;42.60;;;;;;6061539;28;83017;-64
2022/01/23 17:05:50;;;;;;;31.77;15.88;;;22.30;42.60;;;;;;6063356;28;84125;-64
2022/01/23 17:08:51;;;;;;;30.55;14.80;;;22.30;42.70;;;;;;6063165;28;83486;-65
2022/01/23 17:11:51;;;;;;;27.83;14.63;;;22.40;42.70;;;;;;6061296;28;83231;-66
2022/01/23 17:14:52;;;;;;;24.65;12.73;;;22.40;42.70;;;;;;6062604;28;82993;-63
2022/01/23 17:17:52;;;;;;;26.67;12.38;;;22.40;42.50;;;;;;6058899;28;83567;-65
2022/01/23 17:20:54;;;;;;;23.80;12.48;;;22.40;42.90;;;;;;6058592;28;84446;-63
2022/01/23 17:23:55;;;;;;;21.05;11.98;;;22.40;42.90;;;;;;6053505;28;83485;-64
2022/01/23 17:26:55;;;;;;;25.58;12.25;;;22.40;42.60;;;;;;6051265;28;84246;-64
2022/01/23 17:29:56;;;;;;;20.92;10.23;;;22.40;42.30;;;;;;6058744;28;84326;-65
2022/01/23 17:32:56;;;;;;;21.92;10.82;;;22.50;42.90;;;;;;6052657;28;87333;-68
2022/01/23 17:35:57;;;;;;;19.40;10.57;;;22.50;43.10;;;;;;6059896;28;84285;-66
2022/01/23 17:38:57;;;;;;;18.67;10.20;;;22.50;42.40;;;;;;6047243;28;83267;-69
2022/01/23 17:41:58;;;;;;;19.45;10.27;;;22.50;41.80;;;;;;6046541;28;83129;-68
2022/01/23 17:45:03;;;;;;;22.70;10.40;;;22.50;41.40;;;;;;6053735;28;83332;-67
2022/01/23 17:51:19;;;;;;;19.55;10.20;;;22.50;39.90;;;;;;6048572;28;85913;-67
2022/01/23 17:54:20;;;;;;;18.95;9.82;;;22.60;39.70;;;;;;6061673;28;83869;-67
2022/01/23 17:57:20;;;;;;;18.05;9.95;;;22.70;39.30;;;;;;6049771;28;84026;-67
2022/01/23 18:00:21;;;;;;;20.05;9.73;;;22.80;39.00;;;;;;6063931;28;80723;-69
2022/01/23 18:03:22;;;;;;;19.73;10.35;;;22.80;38.90;;;;;;6064809;28;82603;-68
2022/01/23 18:06:23;;;;;;;20.92;9.60;;;22.90;38.50;;;;;;6060752;28;82994;-66
2022/01/23 18:09:24;;;;;;;20.52;10.05;;;22.90;38.30;;;;;;6061963;28;83004;-66
2022/01/23 18:12:24;;;;;;;21.58;10.82;;;22.90;38.50;;;;;;6060521;28;82895;-67
2022/01/23 18:15:25;;;;;;;21.33;10.93;;;22.90;38.60;;;;;;6060009;28;85360;-66
2022/01/23 18:18:26;;;;;;;19.58;10.40;;;22.90;38.00;;;;;;6059365;28;83423;-65
2022/01/23 18:21:26;;;;;;;21.83;10.50;;;22.80;37.10;;;;;;6062157;28;85664;-65
2022/01/23 18:24:27;;;;;;;18.77;10.20;;;22.80;37.10;;;;;;6060005;28;84191;-66
2022/01/23 18:27:27;;;;;;;19.80;10.05;;;22.80;37.00;;;;;;6055227;28;83518;-64
2022/01/23 18:30:28;;;;;;;20.13;10.27;;;22.90;36.70;;;;;;6045080;28;83226;-65
2022/01/23 18:33:28;;;;;;;20.40;10.15;;;22.90;36.40;;;;;;6054108;28;83364;-66
2022/01/23 18:36:31;;;;;;;21.83;10.90;;;22.80;36.70;;;;;;6047163;28;82869;-65
2022/01/23 18:39:31;;;;;;;20.17;10.48;;;22.80;36.20;;;;;;6065630;28;83701;-66
2022/01/23 18:42:32;;;;;;;17.55;10.50;;;22.80;36.20;;;;;;6057620;28;83400;-65
2022/01/23 18:45:32;;;;;;;17.90;10.90;;;22.80;36.00;;;;;;6056860;28;83227;-66
2022/01/23 18:48:33;;;;;;;18.65;9.85;;;22.80;36.20;;;;;;6058198;28;83024;-67
2022/01/23 18:51:38;;;;;;;18.50;10.63;;;22.70;35.90;;;;;;6060397;28;82066;-67
2022/01/23 18:54:47;;;;;;;18.35;9.90;;;22.70;35.70;;;;;;6053570;28;83364;-67
2022/01/23 18:58:03;;;;;;;17.75;9.48;;;22.70;35.40;;;;;;6059630;28;83240;-67